createdAt,value
2022-09-28T00:04:11.520Z,9.19
2022-09-28T00:09:17.229Z,9.17
2022-09-28T00:14:18.791Z,9.15
2022-09-28T00:19:20.346Z,9.16
2022-09-28T00:24:26.606Z,9.10
2022-09-28T00:29:31.749Z,9.12
2022-09-28T00:34:36.905Z,9.11
2022-09-28T00:39:41.356Z,9.08
2022-09-28T00:44:48.087Z,9.08
2022-09-28T00:50:18.135Z,9.07
2022-09-28T00:55:22.925Z,8.93
2022-09-28T01:00:24.676Z,8.91
2022-09-28T01:05:27.537Z,8.99
2022-09-28T01:10:31.450Z,9.06
2022-09-28T01:15:40.142Z,9.10
2022-09-28T01:20:57.101Z,9.09
2022-09-28T01:26:33.220Z,9.15
2022-09-28T01:31:41.824Z,9.19
2022-09-28T01:36:51.981Z,9.27
2022-09-28T01:41:57.688Z,9.37
2022-09-28T01:47:04.263Z,9.43
2022-09-28T01:52:15.103Z,9.48
2022-09-28T01:57:25.033Z,9.51
2022-09-28T02:02:33.986Z,9.49
2022-09-28T02:07:43.646Z,9.52
2022-09-28T02:13:11.132Z,9.55
2022-09-28T02:18:13.378Z,9.50
2022-09-28T02:23:16.129Z,9.37
2022-09-28T02:28:17.869Z,9.22
2022-09-28T02:33:32.123Z,9.16
2022-09-28T02:38:34.205Z,9.17
2022-09-28T02:43:48.816Z,9.19
2022-09-28T02:49:26.470Z,9.12
2022-09-28T02:54:55.511Z,9.02
2022-09-28T03:00:16.107Z,8.96
2022-09-28T03:05:22.829Z,8.99
2022-09-28T03:10:46.711Z,8.94
2022-09-28T03:15:49.421Z,8.98
2022-09-28T03:20:52.615Z,8.96
2022-09-28T03:25:54.828Z,8.91
2022-09-28T03:30:56.763Z,8.99
2022-09-28T03:35:58.375Z,9.05
2022-09-28T03:41:00.781Z,8.99
2022-09-28T03:46:08.413Z,9.00
2022-09-28T03:51:15.353Z,8.95
2022-09-28T03:56:17.477Z,8.92
2022-09-28T04:01:19.234Z,8.99
2022-09-28T04:06:23.130Z,8.91
2022-09-28T04:11:24.852Z,8.96
2022-09-28T04:16:26.823Z,8.97
2022-09-28T04:21:37.480Z,8.89
2022-09-28T04:26:43.983Z,9.00
2022-09-28T04:31:49.757Z,9.02
2022-09-28T04:36:51.899Z,9.06
2022-09-28T04:41:53.979Z,9.07
2022-09-28T04:46:55.951Z,9.11
2022-09-28T04:52:04.747Z,9.09
2022-09-28T04:57:09.266Z,8.99
2022-09-28T05:02:15.107Z,9.03
2022-09-28T05:07:35.535Z,9.04
2022-09-28T05:12:38.907Z,9.06
2022-09-28T05:17:40.452Z,9.09
2022-09-28T05:22:54.903Z,9.13
2022-09-28T05:27:57.402Z,9.15
2022-09-28T05:33:19.271Z,9.12
2022-09-28T05:38:30.399Z,9.13
2022-09-28T05:43:32.735Z,9.13
2022-09-28T05:48:34.387Z,9.16
2022-09-28T05:53:36.968Z,9.11
2022-09-28T05:58:39.227Z,9.13
2022-09-28T06:03:41.031Z,9.12
2022-09-28T06:08:46.366Z,9.17
2022-09-28T06:14:07.608Z,9.16
2022-09-28T06:19:09.673Z,9.25
2022-09-28T06:24:37.340Z,9.35
2022-09-28T06:29:38.941Z,9.36
2022-09-28T06:34:42.035Z,9.38
2022-09-28T06:39:43.940Z,9.39
2022-09-28T06:44:46.292Z,9.42
2022-09-28T06:49:59.210Z,9.28
2022-09-28T06:55:24.036Z,9.36
2022-09-28T07:00:32.916Z,9.35
2022-09-28T07:05:37.457Z,9.41
2022-09-28T07:11:12.386Z,9.46
2022-09-28T07:16:39.543Z,9.54
2022-09-28T07:22:01.106Z,9.82
2022-09-28T07:27:06.767Z,9.98
2022-09-28T07:32:12.771Z,10.17
2022-09-28T07:37:37.120Z,10.35
2022-09-28T07:42:38.822Z,10.18
2022-09-28T07:47:40.772Z,10.13
2022-09-28T07:53:04.780Z,10.01
2022-09-28T07:58:16.160Z,10.03
2022-09-28T08:03:25.171Z,9.98
2022-09-28T08:08:30.050Z,10.07
2022-09-28T08:13:32.782Z,10.22
2022-09-28T08:18:54.270Z,10.34
2022-09-28T08:23:56.324Z,10.52
2022-09-28T08:29:03.951Z,10.77
2022-09-28T08:34:31.543Z,11.01
2022-09-28T08:39:53.475Z,11.24
2022-09-28T08:45:15.406Z,11.33
2022-09-28T08:51:00.834Z,11.23
2022-09-28T08:56:44.772Z,11.13
2022-09-28T09:01:57.740Z,11.20
2022-09-28T09:07:24.016Z,11.13
2022-09-28T09:13:01.136Z,11.18
2022-09-28T09:18:25.689Z,11.18
2022-09-28T09:23:57.558Z,11.31
2022-09-28T09:29:17.156Z,11.42
2022-09-28T09:34:26.355Z,11.71
2022-09-28T09:39:58.174Z,12.17
2022-09-28T09:45:48.524Z,12.44
2022-09-28T09:51:44.546Z,12.71
2022-09-28T09:57:03.873Z,13.02
2022-09-28T10:02:39.429Z,13.28
2022-09-28T10:07:58.830Z,13.52
2022-09-28T10:13:01.348Z,13.47
2022-09-28T10:18:10.125Z,13.57
2022-09-28T10:23:37.821Z,13.75
2022-09-28T10:28:52.227Z,13.75
2022-09-28T10:33:57.599Z,13.83
2022-09-28T10:38:59.588Z,14.01
2022-09-28T10:44:34.978Z,14.25
2022-09-28T10:49:50.556Z,14.55
2022-09-28T10:54:59.084Z,14.50
2022-09-28T11:00:06.891Z,14.47
2022-09-28T11:05:24.855Z,14.52
2022-09-28T11:10:33.980Z,14.48
2022-09-28T11:15:55.501Z,14.40
2022-09-28T11:21:32.047Z,14.24
2022-09-28T11:26:40.914Z,14.31
2022-09-28T11:31:46.168Z,14.40
2022-09-28T11:37:12.677Z,14.24
2022-09-28T11:42:43.650Z,14.39
2022-09-28T11:48:13.147Z,14.47
2022-09-28T11:54:14.203Z,14.81
2022-09-28T11:59:34.693Z,15.06
2022-09-28T12:04:44.396Z,15.21
2022-09-28T12:09:53.588Z,15.23
2022-09-28T12:15:19.838Z,14.97
2022-09-28T12:20:29.342Z,14.54
2022-09-28T12:25:39.595Z,14.33
2022-09-28T12:30:43.838Z,14.20
2022-09-28T12:36:06.781Z,14.19
2022-09-28T12:41:52.863Z,14.39
2022-09-28T12:47:06.167Z,14.68
2022-09-28T12:52:27.239Z,14.70
2022-09-28T12:57:37.534Z,14.79
2022-09-28T13:03:13.438Z,14.75
2022-09-28T13:08:20.745Z,14.90
2022-09-28T13:13:42.516Z,15.43
2022-09-28T13:18:57.489Z,16.06
2022-09-28T13:24:27.965Z,16.41
2022-09-28T13:29:27.486Z,16.45
2022-09-28T13:34:33.446Z,16.36
2022-09-28T13:39:37.517Z,15.95
2022-09-28T13:44:59.450Z,15.75
2022-09-28T13:50:26.883Z,15.85
2022-09-28T13:55:53.884Z,15.94
2022-09-28T14:01:16.685Z,16.03
2022-09-28T14:06:25.522Z,15.84
2022-09-28T14:11:27.002Z,15.60
2022-09-28T14:16:33.273Z,15.46
2022-09-28T14:22:09.652Z,15.30
2022-09-28T14:27:17.436Z,15.38
2022-09-28T14:32:24.498Z,15.43
2022-09-28T14:37:50.138Z,15.41
2022-09-28T14:43:24.210Z,15.20
2022-09-28T14:49:05.700Z,15.04
2022-09-28T14:54:13.090Z,15.03
2022-09-28T15:05:02.477Z,14.61
2022-09-28T15:10:26.670Z,14.33
2022-09-28T15:15:38.832Z,14.18
2022-09-28T15:20:42.052Z,14.21
2022-09-28T15:25:52.359Z,14.06
2022-09-28T15:31:05.201Z,14.08
2022-09-28T15:36:08.626Z,13.92
2022-09-28T15:41:12.394Z,13.96
2022-09-28T15:46:21.084Z,13.91
2022-09-28T15:51:24.536Z,13.79
2022-09-28T15:56:27.378Z,13.76
2022-09-28T16:01:36.544Z,13.62
2022-09-28T16:06:40.824Z,12.95
2022-09-28T16:11:42.354Z,12.39
2022-09-28T16:16:47.828Z,11.78
2022-09-28T16:21:55.792Z,11.97
2022-09-28T16:27:01.254Z,12.13
2022-09-28T16:32:27.366Z,12.10
2022-09-28T16:37:32.415Z,11.90
2022-09-28T16:42:34.168Z,11.92
2022-09-28T16:47:35.996Z,11.97
2022-09-28T16:52:59.828Z,11.97
2022-09-28T16:58:04.514Z,11.65
2022-09-28T17:03:18.446Z,11.11
2022-09-28T17:08:22.221Z,10.92
2022-09-28T17:13:33.224Z,10.63
2022-09-28T17:18:39.105Z,10.49
2022-09-28T17:23:40.648Z,10.25
2022-09-28T17:28:42.152Z,10.11
2022-09-28T17:33:43.777Z,10.03
2022-09-28T17:38:46.778Z,9.99
2022-09-28T17:43:49.021Z,9.95
2022-09-28T17:48:50.538Z,9.93
2022-09-28T17:53:53.172Z,9.81
2022-09-28T17:58:56.372Z,9.68
2022-09-28T18:04:03.439Z,9.51
2022-09-28T18:09:05.386Z,9.40
2022-09-28T18:14:11.104Z,9.17
2022-09-28T18:19:13.029Z,8.97
2022-09-28T18:24:14.645Z,8.82
2022-09-28T18:29:19.376Z,8.75
2022-09-28T18:34:20.885Z,8.62
2022-09-28T18:39:23.781Z,8.48
2022-09-28T18:44:25.366Z,8.31
2022-09-28T18:49:26.886Z,8.11
2022-09-28T18:54:28.479Z,7.95
2022-09-28T18:59:30.128Z,7.84
2022-09-28T19:04:31.657Z,7.82
2022-09-28T19:09:34.112Z,7.83
2022-09-28T19:14:35.611Z,7.83
2022-09-28T19:19:37.158Z,7.86
2022-09-28T19:24:38.720Z,7.88
2022-09-28T19:29:40.224Z,7.93
2022-09-28T19:34:41.751Z,7.95
2022-09-28T19:39:43.312Z,7.92
2022-09-28T19:44:46.456Z,7.91
2022-09-28T19:49:49.109Z,7.92
2022-09-28T19:55:01.183Z,7.88
2022-09-28T20:00:04.195Z,7.79
2022-09-28T20:05:08.976Z,7.70
2022-09-28T20:10:11.942Z,7.60
2022-09-28T20:15:13.584Z,7.46
2022-09-28T20:20:15.370Z,7.33
2022-09-28T20:25:16.986Z,7.19
2022-09-28T20:30:18.639Z,7.12
2022-09-28T20:35:32.367Z,7.01
2022-09-28T20:40:38.523Z,6.92
2022-09-28T20:45:40.071Z,6.84
2022-09-28T20:50:42.624Z,6.75
2022-09-28T20:55:46.554Z,6.68
2022-09-28T21:00:48.067Z,6.65
2022-09-28T21:05:50.781Z,6.61
2022-09-28T21:10:56.111Z,6.57
2022-09-28T21:16:01.404Z,6.52
2022-09-28T21:21:06.160Z,6.49
2022-09-28T21:26:10.330Z,6.43
2022-09-28T21:31:12.902Z,6.37
2022-09-28T21:36:14.486Z,6.25
2022-09-28T21:41:16.409Z,6.15
2022-09-28T21:46:18.111Z,6.09
2022-09-28T21:51:20.231Z,6.00
2022-09-28T21:56:23.068Z,5.92
2022-09-28T22:01:26.080Z,5.81
2022-09-28T22:06:29.908Z,5.58
2022-09-28T22:11:31.452Z,5.53
2022-09-28T22:16:33.003Z,5.47
2022-09-28T22:21:34.938Z,5.42
2022-09-28T22:26:37.205Z,5.27
2022-09-28T22:31:42.220Z,5.14
2022-09-28T22:36:43.770Z,5.02
2022-09-28T22:41:46.105Z,5.08
2022-09-28T22:46:47.950Z,5.11
2022-09-28T22:51:49.702Z,5.06
2022-09-28T22:56:51.232Z,5.02
2022-09-28T23:01:52.839Z,4.94
2022-09-28T23:06:54.545Z,4.86
2022-09-28T23:11:56.105Z,4.80
2022-09-28T23:16:57.632Z,4.65
2022-09-28T23:21:59.303Z,4.66
2022-09-28T23:27:00.899Z,4.67
2022-09-28T23:32:02.436Z,4.70
2022-09-28T23:37:03.974Z,4.74
2022-09-28T23:42:05.677Z,4.72
2022-09-28T23:47:07.184Z,4.70
2022-09-28T23:52:08.916Z,4.70
2022-09-28T23:57:10.484Z,4.69
